Time;durP1;ratioP1;P1;durP2;ratioP2;P2;SDS_P1;SDS_P2;PMS_P1;PMS_P2;Temp;Humidity;BMP_temperature;BMP_pressure;BME280_temperature;BME280_humidity;BME280_pressure;Samples;Min_cycle;Max_cycle;Signal;HPM_P1;HPM_P2
2023/03/21 08:37:40;;;;;;;46.72;35.75;;;11.00;85.40;;;;;;10820995;32;7309519;-74
2023/03/21 08:43:42;;;;;;;69.28;59.67;;;11.30;86.50;;;;;;10996034;32;20018;-74
2023/03/21 08:49:44;;;;;;;40.12;32.55;;;11.50;88.00;;;;;;11011375;32;20393;-76
2023/03/21 08:55:48;;;;;;;21.75;17.35;;;11.80;88.60;;;;;;11011449;32;20022;-75
2023/03/21 09:01:50;;;;;;;18.85;14.20;;;12.10;88.90;;;;;;11007821;32;20015;-75
2023/03/21 09:07:53;;;;;;;22.98;19.67;;;12.30;89.10;;;;;;11008750;32;20018;-75
2023/03/21 09:13:55;;;;;;;19.55;14.43;;;12.50;89.10;;;;;;11008470;32;20198;-75
2023/03/21 09:19:59;;;;;;;23.92;17.70;;;12.80;88.90;;;;;;11008119;32;20026;-75
2023/03/21 09:26:01;;;;;;;23.60;17.27;;;13.00;88.60;;;;;;10980409;32;20038;-76
2023/03/21 09:32:05;;;;;;;29.30;22.95;;;13.20;88.40;;;;;;10993131;32;20030;-73
2023/03/21 09:38:07;;;;;;;47.97;43.00;;;13.30;88.20;;;;;;11009173;32;20045;-73
2023/03/21 09:44:24;;;;;;;29.08;23.85;;;13.50;88.00;;;;;;11002944;32;20388;-73
2023/03/21 09:50:30;;;;;;;16.83;12.57;;;13.70;87.50;;;;;;10985025;32;20046;-73
2023/03/21 09:56:41;;;;;;;14.60;10.65;;;14.00;87.40;;;;;;10980965;32;20372;-73
2023/03/21 10:02:50;;;;;;;13.82;10.23;;;14.20;87.10;;;;;;10982643;32;20046;-73
2023/03/21 10:09:07;;;;;;;18.80;15.52;;;14.30;86.50;;;;;;10981497;32;20038;-75
2023/03/21 10:15:14;;;;;;;12.50;8.77;;;14.50;86.30;;;;;;10970081;32;20038;-73
2023/03/21 10:21:23;;;;;;;18.58;14.23;;;14.80;86.00;;;;;;10981175;32;20054;-73
2023/03/21 10:27:41;;;;;;;20.75;15.77;;;15.00;85.50;;;;;;10969483;32;20345;-75
2023/03/21 10:33:46;;;;;;;12.07;10.43;;;15.20;84.80;;;;;;10979997;32;20404;-73
2023/03/21 10:39:51;;;;;;;12.77;10.23;;;15.40;84.30;;;;;;10965965;32;20026;-73
2023/03/21 10:45:54;;;;;;;20.60;18.37;;;15.50;84.00;;;;;;10964742;32;20030;-73
2023/03/21 10:51:59;;;;;;;11.77;9.75;;;15.70;83.60;;;;;;10967529;32;20058;-73
2023/03/21 10:58:17;;;;;;;11.40;8.95;;;15.90;83.20;;;;;;10963273;32;20035;-73
2023/03/21 11:04:23;;;;;;;13.13;9.80;;;16.20;82.50;;;;;;10979866;32;20010;-74
2023/03/21 11:10:37;;;;;;;12.18;9.00;;;16.40;81.30;;;;;;10978752;32;20022;-74
2023/03/21 11:16:44;;;;;;;14.43;9.30;;;16.80;80.80;;;;;;10981337;32;20041;-74
2023/03/21 11:22:53;;;;;;;12.90;9.82;;;17.10;80.90;;;;;;10967386;32;20069;-74
2023/03/21 11:28:56;;;;;;;12.60;9.25;;;17.40;78.50;;;;;;10979246;32;20019;-74
2023/03/21 11:35:19;;;;;;;9.35;6.97;;;17.60;78.40;;;;;;10978782;32;20048;-75
2023/03/21 11:41:50;;;;;;;10.48;8.32;;;17.80;77.20;;;;;;10977984;32;20010;-74
2023/03/21 11:47:54;;;;;;;12.25;9.55;;;18.20;77.60;;;;;;10961602;32;20027;-74
2023/03/21 11:54:19;;;;;;;17.73;13.65;;;18.40;76.30;;;;;;10977064;32;20092;-75
2023/03/21 12:00:37;;;;;;;9.82;7.10;;;18.50;76.90;;;;;;10976931;32;20045;-75
2023/03/21 12:06:54;;;;;;;14.93;10.87;;;18.50;77.10;;;;;;10964842;32;20049;-75
2023/03/21 12:13:33;;;;;;;8.18;5.90;;;18.70;75.60;;;;;;10978891;32;20037;-75
2023/03/21 12:19:51;;;;;;;8.40;5.20;;;18.80;74.50;;;;;;10977864;32;20294;-75
2023/03/21 12:25:58;;;;;;;8.03;6.13;;;19.10;74.40;;;;;;10976606;32;20431;-75
2023/03/21 12:32:03;;;;;;;8.75;6.03;;;19.20;73.70;;;;;;10977979;32;20353;-75
2023/03/21 12:38:22;;;;;;;11.10;7.18;;;19.30;74.60;;;;;;10977472;32;20023;-74
2023/03/21 12:44:28;;;;;;;8.48;6.57;;;19.30;73.20;;;;;;10975695;32;20312;-74
2023/03/21 12:50:36;;;;;;;11.85;6.40;;;19.30;72.90;;;;;;10979648;32;20050;-75
2023/03/21 12:57:00;;;;;;;9.18;6.50;;;19.10;68.50;;;;;;10978330;32;20065;-74
2023/03/21 13:03:07;;;;;;;9.65;6.70;;;19.20;70.10;;;;;;10977771;32;20023;-75
2023/03/21 13:09:19;;;;;;;12.00;7.07;;;19.50;69.90;;;;;;10960381;32;20027;-75
2023/03/21 13:16:01;;;;;;;9.60;6.68;;;19.70;69.20;;;;;;10975795;32;20015;-75
2023/03/21 13:22:20;;;;;;;7.93;5.20;;;19.80;69.40;;;;;;10943746;32;20027;-74
2023/03/21 13:28:34;;;;;;;9.93;7.22;;;19.90;68.60;;;;;;10985400;32;20019;-75
2023/03/21 13:34:39;;;;;;;22.80;9.13;;;19.90;69.70;;;;;;10981470;32;20019;-74
2023/03/21 13:40:53;;;;;;;18.05;14.68;;;20.00;69.80;;;;;;10982109;32;20018;-74
2023/03/21 13:47:01;;;;;;;19.75;17.65;;;19.90;66.70;;;;;;10981363;32;20014;-74
2023/03/21 13:53:35;;;;;;;12.18;9.98;;;19.80;67.20;;;;;;10967283;32;20031;-74
2023/03/21 13:59:39;;;;;;;12.95;8.40;;;19.80;66.80;;;;;;10982872;32;20400;-75
2023/03/21 14:05:47;;;;;;;10.52;8.98;;;20.00;66.30;;;;;;10986018;32;20018;-74
2023/03/21 14:11:51;;;;;;;;;;;20.20;66.60;;;;;;10968836;32;20018;-75
2023/03/21 14:17:54;;;;;;;7.35;5.95;;;20.30;65.40;;;;;;10965828;32;20318;-75
2023/03/21 14:24:05;;;;;;;9.73;5.82;;;20.50;65.90;;;;;;10982500;32;20058;-74
2023/03/21 14:30:18;;;;;;;7.07;5.40;;;20.60;65.00;;;;;;10965298;32;20438;-74
2023/03/21 14:36:25;;;;;;;7.22;4.97;;;20.80;65.10;;;;;;10979119;32;20019;-74
2023/03/21 14:42:34;;;;;;;9.98;6.50;;;20.90;64.40;;;;;;10982000;32;20030;-74
2023/03/21 14:48:36;;;;;;;8.52;5.75;;;21.00;64.40;;;;;;10966561;32;20096;-74
2023/03/21 14:54:41;;;;;;;8.98;5.25;;;21.30;64.90;;;;;;10926600;32;20057;-74
2023/03/21 15:00:46;;;;;;;10.52;5.18;;;21.40;63.00;;;;;;10942745;32;20357;-74
2023/03/21 15:07:03;;;;;;;9.63;5.05;;;21.40;63.00;;;;;;10940774;32;20360;-74
2023/03/21 15:13:19;;;;;;;5.85;3.97;;;21.40;62.50;;;;;;10972436;32;20038;-74
2023/03/21 15:19:27;;;;;;;7.90;4.87;;;21.50;63.20;;;;;;10965897;32;20027;-74
2023/03/21 15:25:33;;;;;;;6.87;4.78;;;21.50;61.90;;;;;;10948888;32;20035;-74
2023/03/21 15:31:39;;;;;;;8.18;4.90;;;21.70;62.90;;;;;;10967074;32;20030;-74
2023/03/21 15:37:41;;;;;;;7.87;5.43;;;21.80;62.80;;;;;;10963601;32;20111;-74
2023/03/21 15:43:44;;;;;;;6.20;3.83;;;22.30;62.00;;;;;;10950109;32;20026;-74
2023/03/21 15:49:54;;;;;;;7.20;4.70;;;22.40;61.00;;;;;;10979288;32;20050;-74
2023/03/21 15:56:00;;;;;;;6.45;4.00;;;22.60;61.30;;;;;;10975754;32;20053;-74
2023/03/21 16:02:04;;;;;;;7.65;4.57;;;22.50;60.80;;;;;;10962271;32;20038;-74
2023/03/21 16:08:19;;;;;;;7.45;4.40;;;22.30;61.60;;;;;;10962526;32;20041;-74
2023/03/21 16:14:26;;;;;;;8.90;5.45;;;22.20;62.40;;;;;;10974708;32;20035;-75
2023/03/21 16:20:38;;;;;;;12.00;6.18;;;21.80;62.70;;;;;;10963548;32;20027;-75
2023/03/21 16:26:49;;;;;;;8.80;5.68;;;21.50;64.20;;;;;;10953379;32;20400;-75
2023/03/21 16:32:51;;;;;;;11.25;6.22;;;21.10;65.30;;;;;;10924708;27;20027;-75
2023/03/21 16:38:54;;;;;;;10.25;4.93;;;20.80;66.10;;;;;;10854392;32;20020;-75
2023/03/21 16:44:56;;;;;;;8.98;6.25;;;20.50;67.20;;;;;;10820555;32;20070;-76
2023/03/21 16:50:59;;;;;;;9.05;7.03;;;20.10;68.30;;;;;;10825618;32;20362;-75
2023/03/21 16:57:03;;;;;;;12.23;7.07;;;19.90;68.80;;;;;;10846687;32;20058;-75
2023/03/21 17:03:16;;;;;;;8.30;6.15;;;19.70;69.50;;;;;;10864532;32;20023;-75
2023/03/21 17:09:22;;;;;;;9.02;6.47;;;19.40;70.00;;;;;;10848898;32;20058;-75
2023/03/21 17:15:24;;;;;;;11.52;7.50;;;19.30;70.70;;;;;;10864970;32;20085;-75
2023/03/21 17:21:28;;;;;;;9.57;7.22;;;19.20;71.70;;;;;;10839282;32;20427;-75
2023/03/21 17:27:30;;;;;;;12.25;6.32;;;19.10;72.30;;;;;;10829771;32;20031;-73
2023/03/21 17:33:32;;;;;;;13.27;7.10;;;19.00;73.00;;;;;;10803837;33;20039;-75
2023/03/21 17:39:34;;;;;;;9.93;6.43;;;18.90;73.50;;;;;;10829948;32;20023;-74
2023/03/21 17:45:36;;;;;;;13.30;7.53;;;18.80;74.10;;;;;;10811302;33;20036;-75
2023/03/21 17:51:39;;;;;;;9.88;7.97;;;18.70;74.70;;;;;;10834018;32;20410;-75
2023/03/21 17:57:42;;;;;;;10.82;8.57;;;18.50;75.10;;;;;;10829860;33;20021;-75
2023/03/21 18:03:44;;;;;;;8.95;7.93;;;18.50;75.40;;;;;;10829694;32;20023;-75
2023/03/21 18:09:46;;;;;;;11.38;8.65;;;18.40;75.70;;;;;;10843531;32;20444;-75
2023/03/21 18:15:49;;;;;;;11.43;8.70;;;18.40;76.00;;;;;;10860283;32;20098;-75
2023/03/21 18:21:51;;;;;;;13.10;9.57;;;18.30;76.40;;;;;;10846228;32;20334;-75
2023/03/21 18:27:53;;;;;;;12.98;10.73;;;18.20;76.80;;;;;;10818243;33;20058;-75
2023/03/21 18:33:55;;;;;;;17.00;12.32;;;18.10;77.20;;;;;;10828050;33;20058;-75
2023/03/21 18:39:58;;;;;;;14.68;11.25;;;18.10;77.40;;;;;;10851621;32;20102;-73
2023/03/21 18:46:01;;;;;;;13.55;11.63;;;18.00;77.60;;;;;;10848356;32;20039;-73
2023/03/21 18:52:03;;;;;;;16.92;14.30;;;17.90;77.90;;;;;;10852302;32;20049;-73
2023/03/21 18:58:06;;;;;;;19.42;14.87;;;17.90;78.10;;;;;;10848724;32;20024;-73
2023/03/21 19:04:08;;;;;;;16.10;12.88;;;17.80;78.40;;;;;;10862161;32;20377;-73
2023/03/21 19:10:11;;;;;;;22.27;13.32;;;17.80;78.50;;;;;;10862082;32;20054;-73
2023/03/21 19:16:13;;;;;;;11.90;10.35;;;17.80;78.70;;;;;;10862771;32;20019;-73
2023/03/21 19:22:16;;;;;;;17.25;13.27;;;17.70;78.90;;;;;;10845634;32;20028;-73
2023/03/21 19:28:18;;;;;;;15.77;12.15;;;17.70;79.00;;;;;;10850671;32;20054;-73
2023/03/21 19:34:21;;;;;;;14.98;12.60;;;17.70;79.10;;;;;;10846670;32;20032;-73
2023/03/21 19:40:23;;;;;;;16.65;11.77;;;17.70;79.20;;;;;;10860664;32;20183;-73
2023/03/21 19:46:25;;;;;;;16.92;13.32;;;17.60;79.30;;;;;;10850146;32;20028;-73
2023/03/21 19:52:27;;;;;;;17.15;14.98;;;17.60;79.40;;;;;;10845222;32;20059;-73
2023/03/21 19:58:30;;;;;;;19.98;17.08;;;17.50;79.60;;;;;;10861143;32;20024;-73
2023/03/21 20:04:33;;;;;;;21.90;14.27;;;17.50;79.70;;;;;;10850039;32;20405;-73
2023/03/21 20:10:36;;;;;;;18.52;16.20;;;17.50;79.80;;;;;;10848619;32;20032;-73
2023/03/21 20:16:38;;;;;;;16.00;13.98;;;17.50;79.90;;;;;;10863092;32;20020;-73
2023/03/21 20:22:41;;;;;;;18.90;16.23;;;17.40;80.00;;;;;;10863015;32;20032;-73
2023/03/21 20:28:50;;;;;;;17.45;14.15;;;17.30;80.10;;;;;;10861216;32;20020;-73
2023/03/21 20:34:54;;;;;;;16.62;14.77;;;17.30;80.30;;;;;;10847538;32;20035;-73
2023/03/21 20:40:57;;;;;;;16.40;13.52;;;17.30;80.50;;;;;;10849940;32;20042;-73
2023/03/21 20:47:03;;;;;;;23.42;16.12;;;17.30;80.50;;;;;;10861180;32;20050;-73
2023/03/21 20:53:07;;;;;;;21.45;17.55;;;17.20;80.60;;;;;;10846130;32;20031;-73
2023/03/21 20:59:14;;;;;;;17.15;14.38;;;17.20;80.70;;;;;;10858896;32;20019;-73
2023/03/21 21:05:18;;;;;;;18.33;15.20;;;17.10;80.80;;;;;;10848216;32;20058;-73
2023/03/21 21:11:21;;;;;;;20.65;15.60;;;17.10;80.80;;;;;;10861280;32;20038;-73
2023/03/21 21:17:23;;;;;;;19.10;17.05;;;17.00;80.90;;;;;;10856948;32;20333;-72
2023/03/21 21:23:45;;;;;;;23.15;18.52;;;17.00;80.90;;;;;;10857241;32;20027;-72
2023/03/21 21:29:48;;;;;;;17.95;13.32;;;17.00;80.90;;;;;;10860315;32;20074;-72
2023/03/21 21:35:53;;;;;;;16.10;14.27;;;16.90;80.90;;;;;;10857207;32;20337;-72
2023/03/21 21:41:57;;;;;;;20.45;15.63;;;16.80;81.00;;;;;;10849383;32;20016;-72
2023/03/21 21:47:59;;;;;;;19.37;17.25;;;16.80;81.10;;;;;;10864342;32;20019;-72
2023/03/21 21:54:03;;;;;;;26.27;19.75;;;16.80;81.40;;;;;;10854464;32;20050;-72
2023/03/21 22:00:11;;;;;;;22.77;17.10;;;16.70;81.60;;;;;;10850423;32;20032;-72
2023/03/21 22:06:13;;;;;;;21.27;17.45;;;16.60;81.50;;;;;;10865188;32;20038;-72
2023/03/21 22:12:15;;;;;;;22.42;17.92;;;16.60;81.50;;;;;;10847794;32;20031;-73
2023/03/21 22:18:17;;;;;;;22.27;18.70;;;16.50;81.20;;;;;;10864984;32;20365;-73
2023/03/21 22:24:20;;;;;;;24.25;17.02;;;16.40;81.40;;;;;;10865100;32;20020;-72
2023/03/21 22:30:22;;;;;;;31.87;26.50;;;16.30;81.40;;;;;;10852316;32;20012;-72
2023/03/21 22:36:24;;;;;;;30.98;27.35;;;16.30;81.50;;;;;;10862986;32;20349;-73
2023/03/21 22:42:27;;;;;;;20.70;16.42;;;16.20;81.60;;;;;;10850826;32;20413;-73
2023/03/21 22:48:29;;;;;;;20.70;17.25;;;16.20;81.50;;;;;;10851281;32;20024;-73
2023/03/21 22:54:32;;;;;;;18.50;16.20;;;16.10;81.50;;;;;;10862295;32;20061;-72
2023/03/21 23:00:33;;;;;;;22.80;20.25;;;16.00;81.50;;;;;;10864117;32;20016;-72
2023/03/21 23:06:59;;;;;;;18.27;16.33;;;15.90;81.50;;;;;;10846362;32;20039;-72
2023/03/21 23:13:01;;;;;;;23.42;17.67;;;15.80;81.50;;;;;;10850286;32;20337;-72
2023/03/21 23:19:04;;;;;;;19.30;14.98;;;15.70;81.60;;;;;;10863676;32;20024;-72
2023/03/21 23:25:07;;;;;;;15.18;13.52;;;15.70;81.40;;;;;;10845545;32;20054;-72
2023/03/21 23:31:11;;;;;;;20.15;16.50;;;15.70;81.50;;;;;;10864344;32;20050;-72
2023/03/21 23:37:13;;;;;;;22.15;16.98;;;15.60;81.60;;;;;;10847422;32;20031;-72
2023/03/21 23:43:15;;;;;;;20.85;17.25;;;15.60;81.50;;;;;;10845101;32;20066;-73
2023/03/21 23:49:17;;;;;;;18.23;16.35;;;15.60;81.50;;;;;;10864060;32;20081;-72
2023/03/21 23:55:20;;;;;;;25.33;21.75;;;15.60;81.50;;;;;;10862480;32;20032;-72
